sensor_id;sensor_type;location;lat;lon;timestamp;pressure;altitude;pressure_sealevel;temperature;humidity
49945;BME280;35838;49.134;9.212;2022-12-11T00:01:19;99322.66;;;0.08;79.90
49945;BME280;35838;49.134;9.212;2022-12-11T00:02:53;99321.06;;;0.12;79.96
49945;BME280;35838;49.134;9.212;2022-12-11T00:04:27;99328.72;;;0.12;79.93
49945;BME280;35838;49.134;9.212;2022-12-11T00:06:04;99329.25;;;0.00;80.40
49945;BME280;35838;49.134;9.212;2022-12-11T00:07:38;99329.44;;;0.08;80.48
49945;BME280;35838;49.134;9.212;2022-12-11T00:09:14;99327.72;;;0.07;80.28
49945;BME280;35838;49.134;9.212;2022-12-11T00:10:49;99325.16;;;0.07;80.17
49945;BME280;35838;49.134;9.212;2022-12-11T00:12:23;99329.69;;;0.15;79.92
49945;BME280;35838;49.134;9.212;2022-12-11T00:13:57;99328.09;;;0.21;79.50
49945;BME280;35838;49.134;9.212;2022-12-11T00:15:31;99331.47;;;0.20;79.22
49945;BME280;35838;49.134;9.212;2022-12-11T00:17:05;99321.19;;;0.17;79.19
49945;BME280;35838;49.134;9.212;2022-12-11T00:18:37;99325.41;;;0.16;79.04
49945;BME280;35838;49.134;9.212;2022-12-11T00:20:11;99332.28;;;0.19;78.91
49945;BME280;35838;49.134;9.212;2022-12-11T00:21:45;99325.56;;;0.21;79.02
49945;BME280;35838;49.134;9.212;2022-12-11T00:23:19;99324.78;;;0.23;79.57
49945;BME280;35838;49.134;9.212;2022-12-11T00:24:56;99326.50;;;0.24;79.52
49945;BME280;35838;49.134;9.212;2022-12-11T00:26:29;99325.72;;;0.27;79.01
49945;BME280;35838;49.134;9.212;2022-12-11T00:28:04;99325.69;;;0.25;79.38
49945;BME280;35838;49.134;9.212;2022-12-11T00:29:37;99326.34;;;0.18;78.76
49945;BME280;35838;49.134;9.212;2022-12-11T00:31:13;99327.16;;;0.17;78.62
49945;BME280;35838;49.134;9.212;2022-12-11T00:32:50;99328.84;;;0.17;78.87
49945;BME280;35838;49.134;9.212;2022-12-11T00:34:24;99324.69;;;0.20;78.88
49945;BME280;35838;49.134;9.212;2022-12-11T00:35:58;99320.41;;;0.19;78.90
49945;BME280;35838;49.134;9.212;2022-12-11T00:37:32;99320.47;;;0.22;78.83
49945;BME280;35838;49.134;9.212;2022-12-11T00:39:06;99323.94;;;0.24;78.83
49945;BME280;35838;49.134;9.212;2022-12-11T00:40:43;99322.22;;;0.23;78.87
49945;BME280;35838;49.134;9.212;2022-12-11T00:42:17;99321.47;;;0.26;78.36
49945;BME280;35838;49.134;9.212;2022-12-11T00:43:51;99316.47;;;0.30;77.81
49945;BME280;35838;49.134;9.212;2022-12-11T00:45:25;99320.81;;;0.33;77.78
49945;BME280;35838;49.134;9.212;2022-12-11T00:46:56;99319.03;;;0.30;77.52
49945;BME280;35838;49.134;9.212;2022-12-11T00:48:30;99330.09;;;0.31;77.23
49945;BME280;35838;49.134;9.212;2022-12-11T00:50:06;99327.53;;;0.31;77.34
49945;BME280;35838;49.134;9.212;2022-12-11T00:51:40;99326.63;;;0.29;77.65
49945;BME280;35838;49.134;9.212;2022-12-11T00:53:14;99328.28;;;0.27;77.59
49945;BME280;35838;49.134;9.212;2022-12-11T00:54:45;99332.69;;;0.33;77.66
49945;BME280;35838;49.134;9.212;2022-12-11T00:56:22;99325.78;;;0.28;78.29
49945;BME280;35838;49.134;9.212;2022-12-11T00:57:56;99321.63;;;0.32;78.58
49945;BME280;35838;49.134;9.212;2022-12-11T00:59:28;99325.00;;;0.31;78.76
49945;BME280;35838;49.134;9.212;2022-12-11T01:01:05;99329.88;;;0.23;78.47
49945;BME280;35838;49.134;9.212;2022-12-11T01:02:39;99330.88;;;-0.02;79.25
49945;BME280;35838;49.134;9.212;2022-12-11T01:04:13;99327.81;;;0.10;79.63
49945;BME280;35838;49.134;9.212;2022-12-11T01:05:51;99327.94;;;0.14;79.93
49945;BME280;35838;49.134;9.212;2022-12-11T01:07:25;99339.22;;;0.23;79.99
49945;BME280;35838;49.134;9.212;2022-12-11T01:08:59;99333.56;;;0.33;80.03
49945;BME280;35838;49.134;9.212;2022-12-11T01:10:46;99328.09;;;0.21;79.96
49945;BME280;35838;49.134;9.212;2022-12-11T01:12:22;99338.16;;;0.14;80.07
49945;BME280;35838;49.134;9.212;2022-12-11T01:13:54;99338.41;;;0.24;80.25
49945;BME280;35838;49.134;9.212;2022-12-11T01:15:29;99343.59;;;0.27;80.27
49945;BME280;35838;49.134;9.212;2022-12-11T01:17:04;99336.91;;;0.30;80.00
49945;BME280;35838;49.134;9.212;2022-12-11T01:18:38;99336.03;;;0.30;79.69
49945;BME280;35838;49.134;9.212;2022-12-11T01:20:12;99338.00;;;0.39;79.02
49945;BME280;35838;49.134;9.212;2022-12-11T01:21:43;99347.53;;;0.46;78.55
49945;BME280;35838;49.134;9.212;2022-12-11T01:23:17;99346.63;;;0.44;78.55
49945;BME280;35838;49.134;9.212;2022-12-11T01:24:49;99344.09;;;0.45;78.41
49945;BME280;35838;49.134;9.212;2022-12-11T01:26:23;99337.13;;;0.40;78.78
49945;BME280;35838;49.134;9.212;2022-12-11T01:27:59;99341.16;;;0.31;78.54
49945;BME280;35838;49.134;9.212;2022-12-11T01:29:33;99341.03;;;0.27;78.43
49945;BME280;35838;49.134;9.212;2022-12-11T01:31:08;99340.19;;;0.26;78.13
49945;BME280;35838;49.134;9.212;2022-12-11T01:32:42;99342.63;;;0.23;78.08
49945;BME280;35838;49.134;9.212;2022-12-11T01:34:16;99336.06;;;0.31;78.00
49945;BME280;35838;49.134;9.212;2022-12-11T01:35:50;99337.72;;;0.29;77.76
49945;BME280;35838;49.134;9.212;2022-12-11T01:37:24;99342.03;;;0.32;78.11
49945;BME280;35838;49.134;9.212;2022-12-11T01:38:58;99341.28;;;0.36;78.13
49945;BME280;35838;49.134;9.212;2022-12-11T01:40:32;99338.81;;;0.38;77.95
49945;BME280;35838;49.134;9.212;2022-12-11T01:42:06;99333.63;;;0.36;78.15
49945;BME280;35838;49.134;9.212;2022-12-11T01:44:03;99338.00;;;0.39;77.56
49945;BME280;35838;49.134;9.212;2022-12-11T01:45:39;99338.16;;;0.45;77.31
49945;BME280;35838;49.134;9.212;2022-12-11T01:47:14;99344.22;;;0.50;77.00
49945;BME280;35838;49.134;9.212;2022-12-11T01:48:47;99340.66;;;0.43;77.04
49945;BME280;35838;49.134;9.212;2022-12-11T01:50:21;99342.47;;;0.47;76.81
49945;BME280;35838;49.134;9.212;2022-12-11T01:51:57;99340.59;;;0.42;76.86
49945;BME280;35838;49.134;9.212;2022-12-11T01:53:35;99340.53;;;0.39;76.36
49945;BME280;35838;49.134;9.212;2022-12-11T01:55:10;99341.53;;;0.44;76.40
49945;BME280;35838;49.134;9.212;2022-12-11T01:56:44;99341.41;;;0.41;76.42
49945;BME280;35838;49.134;9.212;2022-12-11T01:58:20;99335.81;;;0.53;75.99
49945;BME280;35838;49.134;9.212;2022-12-11T01:59:58;99349.59;;;0.59;75.43
49945;BME280;35838;49.134;9.212;2022-12-11T02:01:35;99346.34;;;0.65;75.20
49945;BME280;35838;49.134;9.212;2022-12-11T02:03:10;99348.94;;;0.67;75.41
49945;BME280;35838;49.134;9.212;2022-12-11T02:04:45;99347.84;;;0.58;75.55
49945;BME280;35838;49.134;9.212;2022-12-11T02:06:32;99347.72;;;0.54;75.23
49945;BME280;35838;49.134;9.212;2022-12-11T02:08:07;99352.97;;;0.58;74.66
49945;BME280;35838;49.134;9.212;2022-12-11T02:09:43;99352.25;;;0.62;74.97
49945;BME280;35838;49.134;9.212;2022-12-11T02:11:19;99355.53;;;0.58;74.99
49945;BME280;35838;49.134;9.212;2022-12-11T02:14:40;99363.28;;;0.61;74.94
49945;BME280;35838;49.134;9.212;2022-12-11T02:16:23;99355.72;;;0.34;75.53
49945;BME280;35838;49.134;9.212;2022-12-11T02:18:13;99357.53;;;0.09;76.31
49945;BME280;35838;49.134;9.212;2022-12-11T02:19:56;99355.25;;;0.19;76.77
49945;BME280;35838;49.134;9.212;2022-12-11T02:21:37;99351.47;;;0.35;76.57
49945;BME280;35838;49.134;9.212;2022-12-11T02:23:32;99355.97;;;0.13;76.90
49945;BME280;35838;49.134;9.212;2022-12-11T02:25:16;99347.00;;;0.26;76.96
49945;BME280;35838;49.134;9.212;2022-12-11T02:27:02;99354.78;;;0.30;76.66
49945;BME280;35838;49.134;9.212;2022-12-11T02:28:46;99345.38;;;0.29;77.14
49945;BME280;35838;49.134;9.212;2022-12-11T02:30:22;99352.38;;;0.37;76.79
49945;BME280;35838;49.134;9.212;2022-12-11T02:32:00;99343.09;;;0.39;77.03
49945;BME280;35838;49.134;9.212;2022-12-11T02:33:38;99348.09;;;0.36;76.92
49945;BME280;35838;49.134;9.212;2022-12-11T02:35:18;99339.63;;;0.37;77.24
49945;BME280;35838;49.134;9.212;2022-12-11T02:36:57;99344.72;;;0.37;77.19
49945;BME280;35838;49.134;9.212;2022-12-11T02:38:36;99340.47;;;0.37;77.39
49945;BME280;35838;49.134;9.212;2022-12-11T02:40:14;99338.94;;;0.42;77.46
49945;BME280;35838;49.134;9.212;2022-12-11T02:41:50;99333.84;;;0.44;77.48
49945;BME280;35838;49.134;9.212;2022-12-11T02:43:22;99333.88;;;0.45;77.45
49945;BME280;35838;49.134;9.212;2022-12-11T02:45:00;99340.66;;;0.43;77.54
49945;BME280;35838;49.134;9.212;2022-12-11T02:46:36;99336.13;;;0.33;78.05
49945;BME280;35838;49.134;9.212;2022-12-11T02:48:12;99334.38;;;0.32;78.57
49945;BME280;35838;49.134;9.212;2022-12-11T02:49:49;99331.22;;;0.41;78.27
49945;BME280;35838;49.134;9.212;2022-12-11T02:55:00;99329.34;;;0.05;79.78
49945;BME280;35838;49.134;9.212;2022-12-11T02:56:39;99326.75;;;-0.26;80.94
49945;BME280;35838;49.134;9.212;2022-12-11T02:58:17;99318.56;;;-0.16;81.10
49945;BME280;35838;49.134;9.212;2022-12-11T02:59:52;99320.56;;;-0.05;80.92
49945;BME280;35838;49.134;9.212;2022-12-11T03:01:30;99313.16;;;0.03;80.98
49945;BME280;35838;49.134;9.212;2022-12-11T03:03:04;99320.16;;;0.10;80.30
49945;BME280;35838;49.134;9.212;2022-12-11T03:04:39;99322.69;;;0.10;80.39
49945;BME280;35838;49.134;9.212;2022-12-11T03:06:17;99319.41;;;0.14;79.82
49945;BME280;35838;49.134;9.212;2022-12-11T03:07:52;99328.34;;;-0.01;80.18
49945;BME280;35838;49.134;9.212;2022-12-11T03:09:27;99323.41;;;0.06;80.07
49945;BME280;35838;49.134;9.212;2022-12-11T03:10:59;99330.47;;;0.13;80.24
49945;BME280;35838;49.134;9.212;2022-12-11T03:12:36;99332.25;;;0.17;80.08
49945;BME280;35838;49.134;9.212;2022-12-11T03:14:12;99328.53;;;0.06;80.29
49945;BME280;35838;49.134;9.212;2022-12-11T03:15:54;99341.66;;;0.18;80.54
49945;BME280;35838;49.134;9.212;2022-12-11T03:17:37;99336.56;;;-0.11;81.65
49945;BME280;35838;49.134;9.212;2022-12-11T03:19:22;99342.47;;;-0.12;81.49
49945;BME280;35838;49.134;9.212;2022-12-11T03:21:04;99343.84;;;-0.23;82.58
49945;BME280;35838;49.134;9.212;2022-12-11T03:22:44;99341.66;;;-0.11;82.43
49945;BME280;35838;49.134;9.212;2022-12-11T03:24:25;99350.31;;;-0.06;82.41
49945;BME280;35838;49.134;9.212;2022-12-11T03:26:02;99365.56;;;-0.36;83.21
49945;BME280;35838;49.134;9.212;2022-12-11T03:27:43;99367.34;;;-0.34;83.53
49945;BME280;35838;49.134;9.212;2022-12-11T03:29:20;99349.84;;;-0.21;83.55
49945;BME280;35838;49.134;9.212;2022-12-11T03:30:55;99351.84;;;-0.11;83.28
49945;BME280;35838;49.134;9.212;2022-12-11T03:32:37;99347.84;;;-0.03;82.87
49945;BME280;35838;49.134;9.212;2022-12-11T03:34:17;99348.94;;;0.06;82.29
49945;BME280;35838;49.134;9.212;2022-12-11T03:35:54;99352.69;;;0.17;81.96
49945;BME280;35838;49.134;9.212;2022-12-11T03:37:32;99344.31;;;0.21;81.94
49945;BME280;35838;49.134;9.212;2022-12-11T03:39:10;99356.88;;;0.15;81.37
49945;BME280;35838;49.134;9.212;2022-12-11T03:40:49;99361.25;;;0.19;81.59
49945;BME280;35838;49.134;9.212;2022-12-11T03:42:25;99354.69;;;0.27;81.53
49945;BME280;35838;49.134;9.212;2022-12-11T03:44:00;99362.50;;;0.34;81.22
49945;BME280;35838;49.134;9.212;2022-12-11T03:45:36;99362.47;;;0.32;80.97
49945;BME280;35838;49.134;9.212;2022-12-11T03:47:09;99354.69;;;0.27;81.39
49945;BME280;35838;49.134;9.212;2022-12-11T03:48:47;99358.91;;;0.27;81.42
49945;BME280;35838;49.134;9.212;2022-12-11T03:50:23;99356.31;;;0.25;81.52
49945;BME280;35838;49.134;9.212;2022-12-11T03:52:02;99357.06;;;0.21;81.46
49945;BME280;35838;49.134;9.212;2022-12-11T03:53:37;99353.63;;;0.21;81.38
49945;BME280;35838;49.134;9.212;2022-12-11T03:55:13;99351.22;;;0.25;81.18
49945;BME280;35838;49.134;9.212;2022-12-11T03:56:50;99354.69;;;0.27;81.23
49945;BME280;35838;49.134;9.212;2022-12-11T03:58:25;99361.44;;;0.27;81.04
49945;BME280;35838;49.134;9.212;2022-12-11T04:00:00;99356.31;;;0.25;81.22
49945;BME280;35838;49.134;9.212;2022-12-11T04:01:34;99359.66;;;0.23;81.51
49945;BME280;35838;49.134;9.212;2022-12-11T04:03:08;99356.53;;;0.33;81.68
49945;BME280;35838;49.134;9.212;2022-12-11T04:04:45;99355.75;;;0.36;81.28
49945;BME280;35838;49.134;9.212;2022-12-11T04:06:19;99354.69;;;0.27;81.10
49945;BME280;35838;49.134;9.212;2022-12-11T04:07:53;99352.13;;;0.27;81.37
49945;BME280;35838;49.134;9.212;2022-12-11T04:09:27;99345.28;;;0.26;81.38
49945;BME280;35838;49.134;9.212;2022-12-11T04:11:02;99342.88;;;0.31;81.68
49945;BME280;35838;49.134;9.212;2022-12-11T04:12:49;99336.59;;;0.20;81.70
49945;BME280;35838;49.134;9.212;2022-12-11T04:14:23;99342.63;;;0.23;81.42
49945;BME280;35838;49.134;9.212;2022-12-11T04:16:09;99343.59;;;0.27;81.47
49945;BME280;35838;49.134;9.212;2022-12-11T04:17:43;99348.50;;;0.19;81.33
49945;BME280;35838;49.134;9.212;2022-12-11T04:19:29;99351.63;;;0.10;81.49
49945;BME280;35838;49.134;9.212;2022-12-11T04:21:19;99347.19;;;0.05;81.93
49945;BME280;35838;49.134;9.212;2022-12-11T04:23:16;99347.03;;;-0.02;82.72
49945;BME280;35838;49.134;9.212;2022-12-11T04:25:11;99343.97;;;0.10;82.13
49945;BME280;35838;49.134;9.212;2022-12-11T04:26:55;99346.84;;;-0.08;82.36
49945;BME280;35838;49.134;9.212;2022-12-11T04:28:29;99345.44;;;0.02;82.50
49945;BME280;35838;49.134;9.212;2022-12-11T04:30:00;99349.66;;;0.00;82.73
49945;BME280;35838;49.134;9.212;2022-12-11T04:31:35;99352.25;;;0.02;82.75
49945;BME280;35838;49.134;9.212;2022-12-11T04:33:09;99352.50;;;0.11;82.70
49945;BME280;35838;49.134;9.212;2022-12-11T04:34:43;99347.56;;;0.17;82.14
49945;BME280;35838;49.134;9.212;2022-12-11T04:36:20;99343.13;;;0.10;82.25
49945;BME280;35838;49.134;9.212;2022-12-11T04:37:54;99340.69;;;0.14;82.19
49945;BME280;35838;49.134;9.212;2022-12-11T04:39:29;99340.13;;;-0.06;82.47
49945;BME280;35838;49.134;9.212;2022-12-11T04:41:06;99338.72;;;0.06;82.59
49945;BME280;35838;49.134;9.212;2022-12-11T04:42:38;99336.19;;;0.06;82.76
49945;BME280;35838;49.134;9.212;2022-12-11T04:44:12;99333.00;;;-0.16;83.27
49945;BME280;35838;49.134;9.212;2022-12-11T04:45:46;99332.75;;;0.04;83.12
49945;BME280;35838;49.134;9.212;2022-12-11T04:47:18;99338.97;;;0.13;82.75
49945;BME280;35838;49.134;9.212;2022-12-11T04:48:52;99338.88;;;0.10;82.32
49945;BME280;35838;49.134;9.212;2022-12-11T04:50:26;99337.72;;;-0.28;83.28
49945;BME280;35838;49.134;9.212;2022-12-11T04:52:03;99334.97;;;-0.36;84.27
49945;BME280;35838;49.134;9.212;2022-12-11T04:53:37;99339.00;;;-0.43;84.62
49945;BME280;35838;49.134;9.212;2022-12-11T04:55:11;99329.91;;;-0.35;85.11
49945;BME280;35838;49.134;9.212;2022-12-11T04:56:43;99326.81;;;-0.24;85.05
49945;BME280;35838;49.134;9.212;2022-12-11T04:58:17;99335.50;;;-0.46;84.87
49945;BME280;35838;49.134;9.212;2022-12-11T04:59:48;99322.59;;;-0.51;85.28
49945;BME280;35838;49.134;9.212;2022-12-11T05:01:22;99327.53;;;-0.57;85.68
49945;BME280;35838;49.134;9.212;2022-12-11T05:02:57;99327.44;;;-0.59;85.87
49945;BME280;35838;49.134;9.212;2022-12-11T05:04:31;99326.66;;;-0.56;86.00
49945;BME280;35838;49.134;9.212;2022-12-11T05:06:06;99327.16;;;-0.41;85.96
49945;BME280;35838;49.134;9.212;2022-12-11T05:07:43;99325.44;;;-0.42;85.36
49945;BME280;35838;49.134;9.212;2022-12-11T05:09:17;99324.25;;;-0.24;85.68
49945;BME280;35838;49.134;9.212;2022-12-11T05:10:54;99326.22;;;-0.16;85.31
49945;BME280;35838;49.134;9.212;2022-12-11T05:12:30;99332.13;;;-0.45;85.13
49945;BME280;35838;49.134;9.212;2022-12-11T05:14:04;99329.03;;;-0.63;85.73
49945;BME280;35838;49.134;9.212;2022-12-11T05:15:38;99334.66;;;-0.73;86.47
49945;BME280;35838;49.134;9.212;2022-12-11T05:17:12;99333.81;;;-0.73;86.69
49945;BME280;35838;49.134;9.212;2022-12-11T05:18:44;99340.63;;;-0.72;86.85
49945;BME280;35838;49.134;9.212;2022-12-11T05:20:18;99343.44;;;-0.90;87.57
49945;BME280;35838;49.134;9.212;2022-12-11T05:21:52;99342.63;;;-0.89;88.08
49945;BME280;35838;49.134;9.212;2022-12-11T05:23:26;99342.72;;;-0.86;88.20
49945;BME280;35838;49.134;9.212;2022-12-11T05:25:00;99351.00;;;-0.93;88.16
49945;BME280;35838;49.134;9.212;2022-12-11T05:26:34;99343.63;;;-1.10;88.50
49945;BME280;35838;49.134;9.212;2022-12-11T05:28:08;99338.44;;;-1.13;89.19
49945;BME280;35838;49.134;9.212;2022-12-11T05:29:42;99332.59;;;-1.11;89.53
49945;BME280;35838;49.134;9.212;2022-12-11T05:31:19;99338.53;;;-1.10;89.66
49945;BME280;35838;49.134;9.212;2022-12-11T05:32:53;99336.38;;;-1.23;89.69
49945;BME280;35838;49.134;9.212;2022-12-11T05:34:27;99335.16;;;-1.09;90.24
49945;BME280;35838;49.134;9.212;2022-12-11T05:36:02;99333.16;;;-1.19;90.09
49945;BME280;35838;49.134;9.212;2022-12-11T05:37:36;99331.28;;;-0.99;90.17
49945;BME280;35838;49.134;9.212;2022-12-11T05:39:12;99323.78;;;-0.95;89.75
49945;BME280;35838;49.134;9.212;2022-12-11T05:40:54;99328.22;;;-0.89;89.32
49945;BME280;35838;49.134;9.212;2022-12-11T05:42:25;99331.63;;;-0.88;89.16
49945;BME280;35838;49.134;9.212;2022-12-11T05:43:59;99339.44;;;-1.08;89.15
49945;BME280;35838;49.134;9.212;2022-12-11T05:45:31;99327.38;;;-1.14;89.57
49945;BME280;35838;49.134;9.212;2022-12-11T05:47:05;99332.28;;;-1.20;90.28
49945;BME280;35838;49.134;9.212;2022-12-11T05:48:40;99328.41;;;-1.34;90.45
49945;BME280;35838;49.134;9.212;2022-12-11T05:50:14;99326.22;;;-1.23;90.61
49945;BME280;35838;49.134;9.212;2022-12-11T05:51:48;99327.84;;;-1.00;90.92
49945;BME280;35838;49.134;9.212;2022-12-11T05:53:22;99324.44;;;-1.00;90.23
49945;BME280;35838;49.134;9.212;2022-12-11T05:54:59;99321.47;;;-1.13;90.22
49945;BME280;35838;49.134;9.212;2022-12-11T05:56:34;99321.53;;;-1.11;90.06
49945;BME280;35838;49.134;9.212;2022-12-11T05:58:08;99316.53;;;-1.08;90.42
49945;BME280;35838;49.134;9.212;2022-12-11T05:59:40;99308.28;;;-1.01;90.64
49945;BME280;35838;49.134;9.212;2022-12-11T06:01:16;99310.50;;;-1.10;90.46
49945;BME280;35838;49.134;9.212;2022-12-11T06:02:50;99308.06;;;-1.07;90.30
49945;BME280;35838;49.134;9.212;2022-12-11T06:04:24;99308.84;;;-1.09;89.92
49945;BME280;35838;49.134;9.212;2022-12-11T06:06:00;99311.34;;;-1.11;89.14
49945;BME280;35838;49.134;9.212;2022-12-11T06:07:34;99308.03;;;-1.34;89.92
49945;BME280;35838;49.134;9.212;2022-12-11T06:09:11;99302.06;;;-1.35;90.60
49945;BME280;35838;49.134;9.212;2022-12-11T06:10:49;99310.59;;;-1.08;91.14
49945;BME280;35838;49.134;9.212;2022-12-11T06:12:21;99310.25;;;-0.92;91.02
49945;BME280;35838;49.134;9.212;2022-12-11T06:13:55;99314.63;;;-0.88;90.45
49945;BME280;35838;49.134;9.212;2022-12-11T06:15:29;99309.19;;;-0.99;90.56
49945;BME280;35838;49.134;9.212;2022-12-11T06:17:05;99306.81;;;-1.20;91.35
49945;BME280;35838;49.134;9.212;2022-12-11T06:18:40;99309.91;;;-1.29;92.07
49945;BME280;35838;49.134;9.212;2022-12-11T06:20:11;99315.59;;;-1.36;92.44
49945;BME280;35838;49.134;9.212;2022-12-11T06:21:47;99320.91;;;-1.30;92.78
49945;BME280;35838;49.134;9.212;2022-12-11T06:23:21;99308.84;;;-1.09;93.00
49945;BME280;35838;49.134;9.212;2022-12-11T06:24:56;99314.78;;;-1.09;92.24
49945;BME280;35838;49.134;9.212;2022-12-11T06:26:33;99312.78;;;-0.93;92.23
49945;BME280;35838;49.134;9.212;2022-12-11T06:28:07;99313.81;;;-0.87;91.73
49945;BME280;35838;49.134;9.212;2022-12-11T06:29:41;99305.63;;;-0.78;91.59
49945;BME280;35838;49.134;9.212;2022-12-11T06:31:16;99300.81;;;-0.69;91.39
49945;BME280;35838;49.134;9.212;2022-12-11T06:32:50;99296.84;;;-0.59;90.99
49945;BME280;35838;49.134;9.212;2022-12-11T06:34:24;99289.22;;;-0.59;90.27
49945;BME280;35838;49.134;9.212;2022-12-11T06:36:00;99304.31;;;-0.65;89.53
49945;BME280;35838;49.134;9.212;2022-12-11T06:37:35;99297.38;;;-0.69;89.72
49945;BME280;35838;49.134;9.212;2022-12-11T06:39:10;99291.63;;;-0.64;90.07
49945;BME280;35838;49.134;9.212;2022-12-11T06:40:44;99292.63;;;-0.58;89.96
49945;BME280;35838;49.134;9.212;2022-12-11T06:42:18;99286.72;;;-0.57;90.00
49945;BME280;35838;49.134;9.212;2022-12-11T06:43:52;99297.25;;;-0.46;89.63
49945;BME280;35838;49.134;9.212;2022-12-11T06:45:26;99299.78;;;-0.74;88.89
49945;BME280;35838;49.134;9.212;2022-12-11T06:47:00;99305.47;;;-0.83;89.83
49945;BME280;35838;49.134;9.212;2022-12-11T06:48:35;99305.03;;;-0.69;90.33
49945;BME280;35838;49.134;9.212;2022-12-11T06:50:12;99298.69;;;-0.55;90.18
49945;BME280;35838;49.134;9.212;2022-12-11T06:51:46;99295.50;;;-0.48;89.40
49945;BME280;35838;49.134;9.212;2022-12-11T06:53:20;99292.44;;;-0.37;88.80
49945;BME280;35838;49.134;9.212;2022-12-11T06:54:54;99295.19;;;-0.29;88.34
49945;BME280;35838;49.134;9.212;2022-12-11T06:56:28;99288.47;;;-0.27;87.55
49945;BME280;35838;49.134;9.212;2022-12-11T06:58:05;99293.72;;;-0.21;87.76
49945;BME280;35838;49.134;9.212;2022-12-11T06:59:36;99295.56;;;-0.17;87.71
49945;BME280;35838;49.134;9.212;2022-12-11T07:01:16;99298.13;;;-0.17;87.80
49945;BME280;35838;49.134;9.212;2022-12-11T07:02:50;99299.03;;;-0.15;87.30
49945;BME280;35838;49.134;9.212;2022-12-11T07:04:24;99302.44;;;-0.14;87.12
49945;BME280;35838;49.134;9.212;2022-12-11T07:06:01;99300.66;;;-0.17;87.49
49945;BME280;35838;49.134;9.212;2022-12-11T07:07:35;99297.38;;;-0.13;87.36
49945;BME280;35838;49.134;9.212;2022-12-11T07:09:07;99298.81;;;-0.21;86.99
49945;BME280;35838;49.134;9.212;2022-12-11T07:10:41;99303.84;;;-0.53;86.29
49945;BME280;35838;49.134;9.212;2022-12-11T07:12:15;99305.47;;;-0.83;86.91
49945;BME280;35838;49.134;9.212;2022-12-11T07:13:52;99302.47;;;-0.97;87.93
49945;BME280;35838;49.134;9.212;2022-12-11T07:15:27;99316.84;;;-0.99;88.54
49945;BME280;35838;49.134;9.212;2022-12-11T07:17:01;99311.50;;;-0.81;88.87
49945;BME280;35838;49.134;9.212;2022-12-11T07:18:32;99317.91;;;-0.65;88.27
49945;BME280;35838;49.134;9.212;2022-12-11T07:20:08;99320.88;;;-0.52;87.32
49945;BME280;35838;49.134;9.212;2022-12-11T07:21:42;99319.91;;;-0.56;86.49
49945;BME280;35838;49.134;9.212;2022-12-11T07:23:16;99323.59;;;-0.46;86.08
49945;BME280;35838;49.134;9.212;2022-12-11T07:24:50;99316.06;;;-0.43;86.01
49945;BME280;35838;49.134;9.212;2022-12-11T07:26:25;99326.59;;;-0.30;85.89
49945;BME280;35838;49.134;9.212;2022-12-11T07:27:59;99313.84;;;-0.30;85.14
49945;BME280;35838;49.134;9.212;2022-12-11T07:29:36;99319.88;;;-0.28;84.86
49945;BME280;35838;49.134;9.212;2022-12-11T07:31:12;99310.56;;;-0.28;84.77
49945;BME280;35838;49.134;9.212;2022-12-11T07:32:46;99316.53;;;-0.26;84.56
49945;BME280;35838;49.134;9.212;2022-12-11T07:34:20;99326.06;;;-0.20;84.66
49945;BME280;35838;49.134;9.212;2022-12-11T07:35:54;99322.56;;;-0.24;84.42
49945;BME280;35838;49.134;9.212;2022-12-11T07:37:28;99311.38;;;-0.29;84.66
49945;BME280;35838;49.134;9.212;2022-12-11T07:39:02;99315.53;;;-0.33;84.69
49945;BME280;35838;49.134;9.212;2022-12-11T07:40:37;99312.19;;;-0.30;85.01
49945;BME280;35838;49.134;9.212;2022-12-11T07:42:11;99309.53;;;-0.33;84.92
49945;BME280;35838;49.134;9.212;2022-12-11T07:43:45;99318.13;;;-0.29;84.91
49945;BME280;35838;49.134;9.212;2022-12-11T07:45:22;99322.44;;;-0.28;84.78
49945;BME280;35838;49.134;9.212;2022-12-11T07:46:56;99324.06;;;-0.30;85.03
49945;BME280;35838;49.134;9.212;2022-12-11T07:48:30;99324.16;;;-0.27;84.93
49945;BME280;35838;49.134;9.212;2022-12-11T07:50:05;99331.00;;;-0.26;84.62
49945;BME280;35838;49.134;9.212;2022-12-11T07:51:39;99324.44;;;-0.18;84.05
49945;BME280;35838;49.134;9.212;2022-12-11T07:53:13;99321.66;;;-0.26;83.86
49945;BME280;35838;49.134;9.212;2022-12-11T07:54:47;99323.34;;;-0.26;83.75
49945;BME280;35838;49.134;9.212;2022-12-11T07:56:21;99324.97;;;-0.28;84.33
49945;BME280;35838;49.134;9.212;2022-12-11T07:57:55;99326.47;;;-0.35;84.75
49945;BME280;35838;49.134;9.212;2022-12-11T07:59:30;99325.72;;;-0.33;84.86
49945;BME280;35838;49.134;9.212;2022-12-11T08:01:10;99326.69;;;-0.29;84.82
49945;BME280;35838;49.134;9.212;2022-12-11T08:02:44;99325.78;;;-0.29;85.16
49945;BME280;35838;49.134;9.212;2022-12-11T08:04:18;99320.09;;;-0.22;84.98
49945;BME280;35838;49.134;9.212;2022-12-11T08:05:52;99322.00;;;-0.15;84.95
49945;BME280;35838;49.134;9.212;2022-12-11T08:07:26;99323.91;;;-0.08;84.68
49945;BME280;35838;49.134;9.212;2022-12-11T08:09:02;99318.78;;;-0.08;84.21
49945;BME280;35838;49.134;9.212;2022-12-11T08:10:37;99322.88;;;-0.13;84.65
49945;BME280;35838;49.134;9.212;2022-12-11T08:12:11;99315.19;;;-0.14;84.51
49945;BME280;35838;49.134;9.212;2022-12-11T08:13:46;99315.56;;;-0.02;84.41
49945;BME280;35838;49.134;9.212;2022-12-11T08:15:20;99312.13;;;-0.03;84.27
49945;BME280;35838;49.134;9.212;2022-12-11T08:16:56;99314.69;;;-0.03;84.24
49945;BME280;35838;49.134;9.212;2022-12-11T08:18:32;99312.25;;;0.02;84.01
49945;BME280;35838;49.134;9.212;2022-12-11T08:20:08;99308.50;;;-0.11;84.06
49945;BME280;35838;49.134;9.212;2022-12-11T08:21:42;99306.84;;;-0.09;83.92
49945;BME280;35838;49.134;9.212;2022-12-11T08:23:17;99313.81;;;-0.03;84.06
49945;BME280;35838;49.134;9.212;2022-12-11T08:24:51;99318.13;;;-0.02;83.30
49945;BME280;35838;49.134;9.212;2022-12-11T08:26:26;99312.19;;;-0.01;83.46
49945;BME280;35838;49.134;9.212;2022-12-11T08:28:01;99322.97;;;-0.10;83.78
49945;BME280;35838;49.134;9.212;2022-12-11T08:29:35;99313.31;;;-0.20;84.22
49945;BME280;35838;49.134;9.212;2022-12-11T08:31:10;99318.50;;;-0.19;84.50
49945;BME280;35838;49.134;9.212;2022-12-11T08:32:48;99318.50;;;-0.19;84.40
49945;BME280;35838;49.134;9.212;2022-12-11T08:34:22;99320.34;;;-0.42;84.57
49945;BME280;35838;49.134;9.212;2022-12-11T08:35:56;99316.22;;;-0.37;84.83